Sch-135 Galibier — PBIB — position and weather

sailwx.info

Track history (hours):
 
Tides and Currents Weather Stations Pressure Air Temp Water Temp Dewpoint Dewpoint Depression Visibility Wind Speed Wind Dir Waves Ship Positions

Sch-135 Galibier

Last reported at 2018-Jan-10 23:11 UTC. Time now 2018-Jan-18 02:22 UTC.
Position N 50°04' E 000°19'.

Length 35 m.

MMSI: 244630637.

Date/timePositionNaut miles runAvg speedWind from/ knotsBaromVisibWave heightAir tempDewpointWater temp
2018-Jan-10 23:11N 50°04' E 000°19'2 4.3
2018-Jan-10 22:48N 50°03' E 000°17'2 4.0
2018-Jan-10 22:18N 50°01' E 000°16'2 4.1
2018-Jan-10 21:56N 49°60' E 000°15'2 4.2
2018-Jan-10 21:29N 49°58' E 000°14'2 4.2
2018-Jan-10 21:00N 49°56' E 000°13'2 4.0
2018-Jan-10 20:30N 49°54' E 000°12'2 3.9
2018-Jan-10 20:00N 49°52' E 000°11'2 4.1
2018-Jan-10 19:30N 49°51' E 000°10'2 4.2
2018-Jan-10 19:01N 49°49' E 000°09'3 5.1
2018-Jan-10 18:30N 49°46' E 000°07'2 4.8
2018-Jan-10 18:00N 49°44' E 000°06'2 5.0
2018-Jan-10 17:31N 49°42' E 000°04'4 7.7
2018-Jan-10 17:01N 49°38' E 000°03'4 7.8
2018-Jan-10 16:31N 49°34' E 000°02'4 8.4
2018-Jan-10 16:00N 49°30' E 000°02'3 6.7
2018-Jan-10 15:31N 49°29' E 000°07'0 0.5
2018-Jan-10 15:00N 49°29' E 000°07'0 0.0
2018-Jan-10 14:30N 49°29' E 000°07'0 0.0
2018-Jan-10 14:00N 49°29' E 000°07'0 0.0
2018-Jan-10 13:30N 49°29' E 000°07'0 0.0
2018-Jan-10 13:00N 49°29' E 000°07'0 0.0
2018-Jan-10 12:31N 49°29' E 000°07'0 0.0
2018-Jan-10 12:01N 49°29' E 000°08'0 0.0
2018-Jan-10 11:31N 49°29' E 000°07'0 0.0
2018-Jan-10 11:01N 49°29' E 000°07'0 0.0
2018-Jan-10 10:31N 49°29' E 000°07'0 0.0
2018-Jan-10 10:01N 49°29' E 000°07'0 0.0
2018-Jan-10 09:31N 49°29' E 000°07'0 0.0
2018-Jan-10 09:00N 49°29' E 000°07'0 0.0
2018-Jan-10 08:30N 49°29' E 000°07'0 0.0
2018-Jan-10 08:00N 49°29' E 000°07'0 0.0
2018-Jan-10 07:30N 49°29' E 000°07'0 0.0
2018-Jan-10 07:00N 49°29' E 000°07'0 0.0
2018-Jan-10 06:31N 49°29' E 000°07'0 0.0
2018-Jan-10 06:01N 49°29' E 000°07'0 0.0
2018-Jan-10 05:31N 49°29' E 000°07'0 0.0
2018-Jan-10 05:01N 49°29' E 000°07'0 0.0
2018-Jan-10 04:31N 49°29' E 000°07'0 0.0
2018-Jan-10 04:01N 49°29' E 000°07'0 0.0
2018-Jan-10 03:30N 49°29' E 000°07'0 0.0
2018-Jan-10 03:01N 49°29' E 000°07'0 0.0
2018-Jan-10 02:30N 49°29' E 000°07'0 0.0
2018-Jan-10 02:01N 49°29' E 000°07'0 0.0
2018-Jan-10 01:31N 49°29' E 000°07'0 0.0
2018-Jan-10 01:01N 49°29' E 000°07'0 0.0
2018-Jan-10 00:31N 49°29' E 000°07'0 0.0
2018-Jan-10 00:00N 49°29' E 000°07'0 0.0
2018-Jan-09 23:31N 49°29' E 000°07'0 0.0
2018-Jan-09 23:01N 49°29' E 000°07'0 0.0
2018-Jan-09 22:31N 49°29' E 000°07'0 0.0
2018-Jan-09 22:00N 49°29' E 000°07'0 0.8
2018-Jan-09 21:31N 49°29' E 000°07'0 0.8
2018-Jan-09 21:00N 49°29' E 000°06'0 0.0
2018-Jan-09 20:30N 49°29' E 000°06'3 5.6
2018-Jan-09 20:00N 49°30' E 000°02'5 9.7
2018-Jan-09 19:30N 49°33' W 000°03'510.1
2018-Jan-09 19:01N 49°37' W 000°09'5 9.2
2018-Jan-09 18:30N 49°40' W 000°14'510.0
2018-Jan-09 18:00N 49°44' W 000°20'510.1
2018-Jan-09 17:30N 49°47' W 000°25'2 3.4
2018-Jan-09 17:00N 49°48' W 000°27'0 0.8
2018-Jan-09 16:30N 49°48' W 000°28'1 2.0
2018-Jan-09 16:00N 49°48' W 000°29'3 6.0
2018-Jan-09 15:30N 49°47' W 000°24'0 0.4
2018-Jan-09 15:00N 49°47' W 000°24'0 1.0
2018-Jan-09 14:30N 49°48' W 000°25'1 2.4
2018-Jan-09 14:00N 49°48' W 000°24'1 1.6
2018-Jan-09 13:30N 49°49' W 000°24'1 1.1
2018-Jan-09 13:00N 49°49' W 000°25'1 1.8
2018-Jan-09 12:31N 49°49' W 000°26'0 0.8
2018-Jan-09 12:00N 49°49' W 000°27'0 1.0
2018-Jan-09 11:30N 49°49' W 000°27'0 0.4
2018-Jan-09 11:01N 49°49' W 000°28'1 2.4
2018-Jan-09 10:30N 49°49' W 000°26'0 0.9
2018-Jan-09 10:01N 49°49' W 000°25'0 0.5
2018-Jan-09 09:30N 49°49' W 000°25'4 7.6
2018-Jan-09 09:00N 49°51' W 000°21'0 0.9
2018-Jan-09 08:30N 49°51' W 000°20'1 2.9
2018-Jan-09 08:00N 49°52' W 000°18'1 1.5
2018-Jan-09 07:30N 49°52' W 000°19'0 1.0
2018-Jan-09 07:00N 49°51' W 000°18'1 1.7
2018-Jan-09 06:30N 49°51' W 000°17'1 1.9
2018-Jan-09 06:00N 49°52' W 000°18'0 0.3
2018-Jan-09 05:30N 49°51' W 000°18'1 1.1
2018-Jan-09 05:00N 49°51' W 000°17'1 2.2
2018-Jan-09 04:30N 49°52' W 000°18'2 3.7
2018-Jan-09 04:00N 49°52' W 000°15'2 3.0
2018-Jan-09 03:30N 49°52' W 000°18'1 2.5
2018-Jan-09 03:00N 49°51' W 000°16'1 1.9
2018-Jan-09 02:30N 49°52' W 000°17'0 1.0
2018-Jan-09 02:00N 49°51' W 000°17'0 0.9
2018-Jan-09 01:30N 49°51' W 000°16'0 0.8
2018-Jan-09 01:00N 49°51' W 000°17'1 2.5
2018-Jan-09 00:30N 49°51' W 000°15'0 0.7
2018-Jan-09 00:00N 49°51' W 000°15'1 2.9
2018-Jan-08 23:30N 49°52' W 000°17'1 2.0
2018-Jan-08 23:00N 49°51' W 000°18'2 4.0
2018-Jan-08 22:30N 49°51' W 000°15'1 2.5
2018-Jan-08 22:00N 49°52' W 000°17'1 2.5
2018-Jan-08 21:30N 49°52' W 000°19'1 1.9
2018-Jan-08 21:00N 49°52' W 000°21'1 1.4
2018-Jan-08 20:30N 49°52' W 000°22'1 1.2
2018-Jan-08 20:00N 49°52' W 000°23'1 2.3
2018-Jan-08 19:30N 49°53' W 000°24'1 1.5
2018-Jan-08 19:00N 49°54' W 000°24'1 2.2
2018-Jan-08 18:27N 49°54' W 000°22'1 2.0
2018-Jan-08 18:01N 49°54' W 000°21'1 2.4
2018-Jan-08 17:30N 49°53' W 000°19'2 4.8
2018-Jan-08 17:00N 49°51' W 000°17'1 1.3
2018-Jan-08 16:30N 49°51' W 000°17'1 1.8
2018-Jan-08 16:00N 49°51' W 000°18'1 1.3
2018-Jan-08 15:30N 49°51' W 000°18'1 2.9
2018-Jan-08 15:00N 49°50' W 000°20'1 1.7
2018-Jan-08 14:30N 49°51' W 000°20'1 1.3
2018-Jan-08 14:00N 49°51' W 000°20'1 1.1
2018-Jan-08 13:31N 49°51' W 000°21'0 0.8
2018-Jan-08 13:00N 49°51' W 000°22'0 0.6
2018-Jan-08 12:30N 49°51' W 000°22'1 1.2
2018-Jan-08 12:00N 49°51' W 000°23'0 0.6
2018-Jan-08 11:30N 49°52' W 000°23'1 2.1
2018-Jan-08 11:00N 49°52' W 000°24'0 1.0
2018-Jan-08 10:30N 49°53' W 000°24'1 1.8
2018-Jan-08 10:00N 49°53' W 000°23'1 1.9
2018-Jan-08 09:30N 49°52' W 000°23'1 1.5
2018-Jan-08 09:00N 49°53' W 000°24'1 1.5
2018-Jan-08 08:30N 49°53' W 000°23'1 2.6
2018-Jan-08 08:00N 49°54' W 000°22'2 3.3
2018-Jan-08 07:30N 49°54' W 000°24'1 2.2
2018-Jan-08 07:00N 49°53' W 000°25'1 3.0
2018-Jan-08 06:31N 49°51' W 000°25'2 3.8
2018-Jan-08 06:00N 49°52' W 000°22'5 9.5
2018-Jan-08 05:30N 49°54' W 000°16'510.5
2018-Jan-08 05:00N 49°57' W 000°09'510.7
2018-Jan-08 04:31N 49°60' W 000°02'510.5
2018-Jan-08 04:00N 50°03' E 000°04'  
Track history (hours):
 
Tides and Currents Weather Stations Pressure Air Temp Water Temp Dewpoint Dewpoint Depression Visibility Wind Speed Wind Dir Waves Ship Positions

Sch-135 Galibier

Last reported at 2018-Jan-10 23:11 UTC. Time now 2018-Jan-18 02:22 UTC.
Position N 50°04' E 000°19'.

Length 35 m.

MMSI: 244630637.

Date/timePositionNaut miles runAvg speedWind from/ knotsBaromVisibWave heightAir tempDewpointWater temp
2018-Jan-10 23:11N 50°04' E 000°19'2 4.3
2018-Jan-10 22:48N 50°03' E 000°17'2 4.0
2018-Jan-10 22:18N 50°01' E 000°16'2 4.1
2018-Jan-10 21:56N 49°60' E 000°15'2 4.2
2018-Jan-10 21:29N 49°58' E 000°14'2 4.2
2018-Jan-10 21:00N 49°56' E 000°13'2 4.0
2018-Jan-10 20:30N 49°54' E 000°12'2 3.9
2018-Jan-10 20:00N 49°52' E 000°11'2 4.1
2018-Jan-10 19:30N 49°51' E 000°10'2 4.2
2018-Jan-10 19:01N 49°49' E 000°09'3 5.1
2018-Jan-10 18:30N 49°46' E 000°07'2 4.8
2018-Jan-10 18:00N 49°44' E 000°06'2 5.0
2018-Jan-10 17:31N 49°42' E 000°04'4 7.7
2018-Jan-10 17:01N 49°38' E 000°03'4 7.8
2018-Jan-10 16:31N 49°34' E 000°02'4 8.4
2018-Jan-10 16:00N 49°30' E 000°02'3 6.7
2018-Jan-10 15:31N 49°29' E 000°07'0 0.5
2018-Jan-10 15:00N 49°29' E 000°07'0 0.0
2018-Jan-10 14:30N 49°29' E 000°07'0 0.0
2018-Jan-10 14:00N 49°29' E 000°07'0 0.0
2018-Jan-10 13:30N 49°29' E 000°07'0 0.0
2018-Jan-10 13:00N 49°29' E 000°07'0 0.0
2018-Jan-10 12:31N 49°29' E 000°07'0 0.0
2018-Jan-10 12:01N 49°29' E 000°08'0 0.0
2018-Jan-10 11:31N 49°29' E 000°07'0 0.0
2018-Jan-10 11:01N 49°29' E 000°07'0 0.0
2018-Jan-10 10:31N 49°29' E 000°07'0 0.0
2018-Jan-10 10:01N 49°29' E 000°07'0 0.0
2018-Jan-10 09:31N 49°29' E 000°07'0 0.0
2018-Jan-10 09:00N 49°29' E 000°07'0 0.0
2018-Jan-10 08:30N 49°29' E 000°07'0 0.0
2018-Jan-10 08:00N 49°29' E 000°07'0 0.0
2018-Jan-10 07:30N 49°29' E 000°07'0 0.0
2018-Jan-10 07:00N 49°29' E 000°07'0 0.0
2018-Jan-10 06:31N 49°29' E 000°07'0 0.0
2018-Jan-10 06:01N 49°29' E 000°07'0 0.0
2018-Jan-10 05:31N 49°29' E 000°07'0 0.0
2018-Jan-10 05:01N 49°29' E 000°07'0 0.0
2018-Jan-10 04:31N 49°29' E 000°07'0 0.0
2018-Jan-10 04:01N 49°29' E 000°07'0 0.0
2018-Jan-10 03:30N 49°29' E 000°07'0 0.0
2018-Jan-10 03:01N 49°29' E 000°07'0 0.0
2018-Jan-10 02:30N 49°29' E 000°07'0 0.0
2018-Jan-10 02:01N 49°29' E 000°07'0 0.0
2018-Jan-10 01:31N 49°29' E 000°07'0 0.0
2018-Jan-10 01:01N 49°29' E 000°07'0 0.0
2018-Jan-10 00:31N 49°29' E 000°07'0 0.0
2018-Jan-10 00:00N 49°29' E 000°07'0 0.0
2018-Jan-09 23:31N 49°29' E 000°07'0 0.0
2018-Jan-09 23:01N 49°29' E 000°07'0 0.0
2018-Jan-09 22:31N 49°29' E 000°07'0 0.0
2018-Jan-09 22:00N 49°29' E 000°07'0 0.8
2018-Jan-09 21:31N 49°29' E 000°07'0 0.8
2018-Jan-09 21:00N 49°29' E 000°06'0 0.0
2018-Jan-09 20:30N 49°29' E 000°06'3 5.6
2018-Jan-09 20:00N 49°30' E 000°02'5 9.7
2018-Jan-09 19:30N 49°33' W 000°03'510.1
2018-Jan-09 19:01N 49°37' W 000°09'5 9.2
2018-Jan-09 18:30N 49°40' W 000°14'510.0
2018-Jan-09 18:00N 49°44' W 000°20'510.1
2018-Jan-09 17:30N 49°47' W 000°25'2 3.4
2018-Jan-09 17:00N 49°48' W 000°27'0 0.8
2018-Jan-09 16:30N 49°48' W 000°28'1 2.0
2018-Jan-09 16:00N 49°48' W 000°29'3 6.0
2018-Jan-09 15:30N 49°47' W 000°24'0 0.4
2018-Jan-09 15:00N 49°47' W 000°24'0 1.0
2018-Jan-09 14:30N 49°48' W 000°25'1 2.4
2018-Jan-09 14:00N 49°48' W 000°24'1 1.6
2018-Jan-09 13:30N 49°49' W 000°24'1 1.1
2018-Jan-09 13:00N 49°49' W 000°25'1 1.8
2018-Jan-09 12:31N 49°49' W 000°26'0 0.8
2018-Jan-09 12:00N 49°49' W 000°27'0 1.0
2018-Jan-09 11:30N 49°49' W 000°27'0 0.4
2018-Jan-09 11:01N 49°49' W 000°28'1 2.4
2018-Jan-09 10:30N 49°49' W 000°26'0 0.9
2018-Jan-09 10:01N 49°49' W 000°25'0 0.5
2018-Jan-09 09:30N 49°49' W 000°25'4 7.6
2018-Jan-09 09:00N 49°51' W 000°21'0 0.9
2018-Jan-09 08:30N 49°51' W 000°20'1 2.9
2018-Jan-09 08:00N 49°52' W 000°18'1 1.5
2018-Jan-09 07:30N 49°52' W 000°19'0 1.0
2018-Jan-09 07:00N 49°51' W 000°18'1 1.7
2018-Jan-09 06:30N 49°51' W 000°17'1 1.9
2018-Jan-09 06:00N 49°52' W 000°18'0 0.3
2018-Jan-09 05:30N 49°51' W 000°18'1 1.1
2018-Jan-09 05:00N 49°51' W 000°17'1 2.2
2018-Jan-09 04:30N 49°52' W 000°18'2 3.7
2018-Jan-09 04:00N 49°52' W 000°15'2 3.0
2018-Jan-09 03:30N 49°52' W 000°18'1 2.5
2018-Jan-09 03:00N 49°51' W 000°16'1 1.9
2018-Jan-09 02:30N 49°52' W 000°17'0 1.0
2018-Jan-09 02:00N 49°51' W 000°17'0 0.9
2018-Jan-09 01:30N 49°51' W 000°16'0 0.8
2018-Jan-09 01:00N 49°51' W 000°17'1 2.5
2018-Jan-09 00:30N 49°51' W 000°15'0 0.7
2018-Jan-09 00:00N 49°51' W 000°15'1 2.9
2018-Jan-08 23:30N 49°52' W 000°17'1 2.0
2018-Jan-08 23:00N 49°51' W 000°18'2 4.0
2018-Jan-08 22:30N 49°51' W 000°15'1 2.5
2018-Jan-08 22:00N 49°52' W 000°17'1 2.5
2018-Jan-08 21:30N 49°52' W 000°19'1 1.9
2018-Jan-08 21:00N 49°52' W 000°21'1 1.4
2018-Jan-08 20:30N 49°52' W 000°22'1 1.2
2018-Jan-08 20:00N 49°52' W 000°23'1 2.3
2018-Jan-08 19:30N 49°53' W 000°24'1 1.5
2018-Jan-08 19:00N 49°54' W 000°24'1 2.2
2018-Jan-08 18:27N 49°54' W 000°22'1 2.0
2018-Jan-08 18:01N 49°54' W 000°21'1 2.4
2018-Jan-08 17:30N 49°53' W 000°19'2 4.8
2018-Jan-08 17:00N 49°51' W 000°17'1 1.3
2018-Jan-08 16:30N 49°51' W 000°17'1 1.8
2018-Jan-08 16:00N 49°51' W 000°18'1 1.3
2018-Jan-08 15:30N 49°51' W 000°18'1 2.9
2018-Jan-08 15:00N 49°50' W 000°20'1 1.7
2018-Jan-08 14:30N 49°51' W 000°20'1 1.3
2018-Jan-08 14:00N 49°51' W 000°20'1 1.1
2018-Jan-08 13:31N 49°51' W 000°21'0 0.8
2018-Jan-08 13:00N 49°51' W 000°22'0 0.6
2018-Jan-08 12:30N 49°51' W 000°22'1 1.2
2018-Jan-08 12:00N 49°51' W 000°23'0 0.6
2018-Jan-08 11:30N 49°52' W 000°23'1 2.1
2018-Jan-08 11:00N 49°52' W 000°24'0 1.0
2018-Jan-08 10:30N 49°53' W 000°24'1 1.8
2018-Jan-08 10:00N 49°53' W 000°23'1 1.9
2018-Jan-08 09:30N 49°52' W 000°23'1 1.5
2018-Jan-08 09:00N 49°53' W 000°24'1 1.5
2018-Jan-08 08:30N 49°53' W 000°23'1 2.6
2018-Jan-08 08:00N 49°54' W 000°22'2 3.3
2018-Jan-08 07:30N 49°54' W 000°24'1 2.2
2018-Jan-08 07:00N 49°53' W 000°25'1 3.0
2018-Jan-08 06:31N 49°51' W 000°25'2 3.8
2018-Jan-08 06:00N 49°52' W 000°22'5 9.5
2018-Jan-08 05:30N 49°54' W 000°16'510.5
2018-Jan-08 05:00N 49°57' W 000°09'510.7
2018-Jan-08 04:31N 49°60' W 000°02'510.5
2018-Jan-08 04:00N 50°03' E 000°04'  

Dump ship's entire track history